createdAt,value
2018-03-30T00:00:44.094Z,100740.66
2018-03-30T00:03:12.385Z,100737.23
2018-03-30T00:05:41.099Z,100737.86
2018-03-30T00:08:09.524Z,100739.12
2018-03-30T00:10:44.144Z,100737.12
2018-03-30T00:13:13.951Z,100737.69
2018-03-30T00:15:42.410Z,100736.34
2018-03-30T00:18:11.521Z,100742.98
2018-03-30T00:20:39.870Z,100737.94
2018-03-30T00:23:08.212Z,100728.86
2018-03-30T00:25:36.538Z,100725.64
2018-03-30T00:28:04.889Z,100729.59
2018-03-30T00:30:33.538Z,100739.09
2018-03-30T00:33:01.927Z,100739.94
2018-03-30T00:35:30.376Z,100739.39
2018-03-30T00:37:59.099Z,100748.04
2018-03-30T00:40:27.436Z,100757.23
2018-03-30T00:42:56.946Z,100755.66
2018-03-30T00:45:27.090Z,100752.97
2018-03-30T00:47:55.461Z,100757.59
2018-03-30T00:50:24.635Z,100762.41
2018-03-30T00:52:53.041Z,100755.89
2018-03-30T00:55:21.367Z,100749.92
2018-03-30T00:57:50.182Z,100749.37
2018-03-30T01:00:18.482Z,100748.22
2018-03-30T01:02:47.571Z,100748.70
2018-03-30T01:05:15.925Z,100748.15
2018-03-30T01:07:44.243Z,100749.98
2018-03-30T01:10:13.375Z,100747.28
2018-03-30T01:12:41.703Z,100751.17
2018-03-30T01:15:10.018Z,100746.19
2018-03-30T01:17:38.345Z,100746.80
2018-03-30T01:20:06.873Z,100749.14
2018-03-30T01:22:35.213Z,100744.48
2018-03-30T01:25:03.540Z,100750.92
2018-03-30T01:27:31.872Z,100754.63
2018-03-30T01:30:00.200Z,100754.98
2018-03-30T01:32:29.333Z,100758.63
2018-03-30T01:34:57.725Z,100769.23
2018-03-30T01:37:26.821Z,100765.44
2018-03-30T01:39:55.752Z,100767.56
2018-03-30T01:42:24.372Z,100771.45
2018-03-30T01:44:52.878Z,100773.55
2018-03-30T01:47:21.195Z,100771.39
2018-03-30T01:49:49.578Z,100777.64
2018-03-30T01:52:17.922Z,100778.38
2018-03-30T01:54:46.268Z,100780.84
2018-03-30T01:57:14.623Z,100776.48
2018-03-30T01:59:42.949Z,100779.45
2018-03-30T02:02:11.282Z,100777.59
2018-03-30T02:04:39.741Z,100779.48
2018-03-30T02:07:08.848Z,100768.83
2018-03-30T02:09:37.231Z,100777.25
2018-03-30T02:12:05.710Z,100773.27
2018-03-30T02:14:34.056Z,100767.41
2018-03-30T02:17:03.200Z,100764.31
2018-03-30T02:19:31.550Z,100764.34
2018-03-30T02:22:00.758Z,100759.90
2018-03-30T02:24:29.139Z,100762.69
2018-03-30T02:26:57.886Z,100769.83
2018-03-30T02:29:26.256Z,100757.77
2018-03-30T02:31:54.586Z,100759.16
2018-03-30T02:34:22.961Z,100762.00
2018-03-30T02:36:52.123Z,100756.58
2018-03-30T02:39:20.511Z,100749.69
2018-03-30T02:41:48.867Z,100751.88
2018-03-30T02:44:17.280Z,100747.19
2018-03-30T02:46:46.374Z,100750.77
2018-03-30T02:49:15.864Z,100751.45
2018-03-30T02:51:44.266Z,100764.51
2018-03-30T02:54:12.629Z,100769.97
2018-03-30T02:56:41.074Z,100772.36
2018-03-30T02:59:09.487Z,100775.03
2018-03-30T03:01:37.912Z,100773.95
2018-03-30T03:04:06.349Z,100776.93
2018-03-30T03:06:34.762Z,100767.04
2018-03-30T03:09:03.107Z,100764.72
2018-03-30T03:11:32.031Z,100763.70
2018-03-30T03:14:01.222Z,100768.04
2018-03-30T03:16:29.676Z,100767.11
2018-03-30T03:18:58.158Z,100757.58
2018-03-30T03:21:26.608Z,100744.48
2018-03-30T03:23:55.121Z,100745.05
2018-03-30T03:26:23.544Z,100747.73
2018-03-30T03:28:51.929Z,100742.83
2018-03-30T03:31:20.267Z,100746.02
2018-03-30T03:33:48.971Z,100743.58
2018-03-30T03:36:17.368Z,100748.29
2018-03-30T03:38:45.780Z,100748.41
2018-03-30T03:41:14.363Z,100753.05
2018-03-30T03:43:42.687Z,100753.35
2018-03-30T03:46:11.908Z,100756.67
2018-03-30T03:48:40.338Z,100747.02
2018-03-30T03:51:09.455Z,100748.04
2018-03-30T03:53:37.863Z,100755.37
2018-03-30T03:56:06.513Z,100747.08
2018-03-30T03:58:34.842Z,100748.45
2018-03-30T04:01:03.218Z,100745.20
2018-03-30T04:03:31.578Z,100750.53
2018-03-30T04:06:00.718Z,100740.24
2018-03-30T04:08:29.102Z,100735.24
2018-03-30T04:10:57.491Z,100734.79
2018-03-30T04:13:25.812Z,100730.58
2018-03-30T04:15:54.884Z,100735.30
2018-03-30T04:18:23.565Z,100718.84
2018-03-30T04:20:51.900Z,100723.21
2018-03-30T04:23:20.248Z,100728.25
2018-03-30T04:25:49.375Z,100726.62
2018-03-30T04:28:17.690Z,100720.88
2018-03-30T04:30:46.058Z,100719.00
2018-03-30T04:33:14.466Z,100724.74
2018-03-30T04:35:42.823Z,100734.72
2018-03-30T04:38:11.163Z,100740.38
2018-03-30T04:40:39.584Z,100730.09
2018-03-30T04:43:08.308Z,100736.97
2018-03-30T04:45:37.429Z,100739.53
2018-03-30T04:48:05.794Z,100738.09
2018-03-30T04:50:34.165Z,100739.20
2018-03-30T04:53:03.371Z,100751.17
2018-03-30T04:55:31.703Z,100747.50
2018-03-30T04:58:00.014Z,100748.92
2018-03-30T05:00:29.251Z,100748.41
2018-03-30T05:02:57.689Z,100747.02
2018-03-30T05:05:26.008Z,100743.77
2018-03-30T05:07:54.384Z,100747.67
2018-03-30T05:10:23.566Z,100753.30
2018-03-30T05:12:51.890Z,100751.91
2018-03-30T05:15:20.218Z,100753.59
2018-03-30T05:17:48.592Z,100749.09
2018-03-30T05:20:17.085Z,100750.25
2018-03-30T05:22:45.424Z,100751.94
2018-03-30T05:25:14.545Z,100751.61
2018-03-30T05:27:43.609Z,100751.27
2018-03-30T05:30:12.238Z,100747.80
2018-03-30T05:32:40.696Z,100751.45
2018-03-30T05:35:09.236Z,100750.72
2018-03-30T05:37:37.670Z,100759.52
2018-03-30T05:40:06.981Z,100753.05
2018-03-30T05:42:35.453Z,100757.02
2018-03-30T05:45:04.657Z,100762.25
2018-03-30T05:47:34.248Z,100760.93
2018-03-30T05:50:02.581Z,100765.88
2018-03-30T05:52:30.960Z,100768.98
2018-03-30T05:54:59.384Z,100768.38
2018-03-30T05:57:28.505Z,100773.77
2018-03-30T05:59:57.577Z,100767.59
2018-03-30T06:02:25.944Z,100766.80
2018-03-30T06:04:54.240Z,100760.39
2018-03-30T06:07:22.740Z,100761.91
2018-03-30T06:09:51.471Z,100762.14
2018-03-30T06:12:19.857Z,100764.98
2018-03-30T06:14:48.175Z,100757.55
2018-03-30T06:17:16.553Z,100763.56
2018-03-30T06:19:45.922Z,100759.27
2018-03-30T06:22:14.422Z,100756.63
2018-03-30T06:24:43.584Z,100751.09
2018-03-30T06:27:11.963Z,100745.92
2018-03-30T06:29:40.605Z,100748.75
2018-03-30T06:32:09.948Z,100745.91
2018-03-30T06:34:38.331Z,100753.08
2018-03-30T06:37:07.420Z,100750.55
2018-03-30T06:39:35.877Z,100743.70
2018-03-30T06:42:04.201Z,100744.39
2018-03-30T06:44:32.563Z,100749.94
2018-03-30T06:47:01.012Z,100757.19
2018-03-30T06:49:29.366Z,100756.14
2018-03-30T06:51:58.544Z,100756.31
2018-03-30T06:54:27.355Z,100761.89
2018-03-30T06:56:55.733Z,100765.59
2018-03-30T06:59:25.450Z,100761.45
2018-03-30T07:01:54.742Z,100759.91
2018-03-30T07:04:23.874Z,100770.33
2018-03-30T07:06:52.825Z,100771.91
2018-03-30T07:09:21.305Z,100776.84
2018-03-30T07:11:49.687Z,100778.00
2018-03-30T07:14:20.013Z,100785.69
2018-03-30T07:16:48.473Z,100785.02
2018-03-30T07:19:16.841Z,100784.30
2018-03-30T07:21:45.324Z,100782.59
2018-03-30T07:24:13.833Z,100787.42
2018-03-30T07:26:42.249Z,100787.20
2018-03-30T07:29:11.450Z,100789.63
2018-03-30T07:31:40.325Z,100795.72
2018-03-30T07:34:08.802Z,100789.20
2018-03-30T07:36:37.413Z,100782.26
2018-03-30T07:39:05.844Z,100773.44
2018-03-30T07:41:34.256Z,100778.00
2018-03-30T07:44:02.689Z,100777.11
2018-03-30T07:46:31.132Z,100771.45
2018-03-30T07:48:59.549Z,100761.63
2018-03-30T07:51:27.904Z,100752.19
2018-03-30T07:53:56.504Z,100756.86
2018-03-30T07:56:24.911Z,100747.71
2018-03-30T07:58:53.262Z,100747.84
2018-03-30T08:01:22.092Z,100756.55
2018-03-30T08:03:50.429Z,100757.77
2018-03-30T08:06:19.825Z,100765.87
2018-03-30T08:08:48.515Z,100760.42
2018-03-30T08:11:16.895Z,100764.23
2018-03-30T08:13:45.353Z,100757.94
2018-03-30T08:16:13.903Z,100755.33
2018-03-30T08:18:42.974Z,100743.42
2018-03-30T08:21:11.372Z,100745.00
2018-03-30T08:23:40.172Z,100758.02
2018-03-30T08:26:09.289Z,100752.48
2018-03-30T08:28:37.614Z,100750.34
2018-03-30T08:31:05.952Z,100752.67
2018-03-30T08:33:34.403Z,100742.66
2018-03-30T08:36:02.778Z,100746.43
2018-03-30T08:38:31.932Z,100740.12
2018-03-30T08:41:00.282Z,100736.06
2018-03-30T08:43:28.647Z,100739.09
2018-03-30T08:45:57.873Z,100737.79
2018-03-30T08:48:26.249Z,100735.67
2018-03-30T08:50:54.570Z,100733.58
2018-03-30T08:53:22.894Z,100732.73
2018-03-30T08:55:51.988Z,100736.03
2018-03-30T08:58:21.069Z,100736.62
2018-03-30T09:00:49.472Z,100729.34
2018-03-30T09:03:18.123Z,100729.53
2018-03-30T09:05:46.470Z,100736.11
2018-03-30T09:08:15.418Z,100727.78
2018-03-30T09:10:43.785Z,100733.86
2018-03-30T09:13:12.185Z,100717.99
2018-03-30T09:15:40.532Z,100729.58
2018-03-30T09:18:08.896Z,100727.52
2018-03-30T09:20:37.227Z,100730.20
2018-03-30T09:23:05.603Z,100737.10
2018-03-30T09:25:34.686Z,100731.44
2018-03-30T09:28:03.801Z,100730.02
2018-03-30T09:30:32.591Z,100737.67
2018-03-30T09:33:01.025Z,100730.16
2018-03-30T09:35:29.356Z,100737.52
2018-03-30T09:37:57.714Z,100726.19
2018-03-30T09:40:26.796Z,100733.27
2018-03-30T09:42:55.912Z,100724.17
2018-03-30T09:45:24.270Z,100726.53
2018-03-30T09:47:52.803Z,100727.51
2018-03-30T09:50:21.131Z,100729.21
2018-03-30T09:52:50.777Z,100719.88
2018-03-30T09:55:19.116Z,100720.03
2018-03-30T09:57:48.215Z,100708.74
2018-03-30T10:00:21.361Z,100709.65
2018-03-30T10:02:49.686Z,100699.25
2018-03-30T10:05:18.789Z,100707.26
2018-03-30T10:07:47.917Z,100704.27
2018-03-30T10:10:16.274Z,100698.08
2018-03-30T10:12:44.676Z,100695.10
2018-03-30T10:15:13.274Z,100689.69
2018-03-30T10:17:41.616Z,100684.06
2018-03-30T10:20:10.694Z,100676.66
2018-03-30T10:22:39.059Z,100672.97
2018-03-30T10:25:07.407Z,100674.14
2018-03-30T10:27:35.754Z,100670.95
2018-03-30T10:30:04.873Z,100661.17
2018-03-30T10:32:33.183Z,100668.56
2018-03-30T10:35:01.490Z,100675.16
2018-03-30T10:37:30.992Z,100676.52
2018-03-30T10:39:59.359Z,100673.30
2018-03-30T10:42:27.709Z,100677.36
2018-03-30T10:44:56.061Z,100675.19
2018-03-30T10:47:24.383Z,100659.69
2018-03-30T10:49:52.947Z,100656.92
2018-03-30T10:52:21.357Z,100663.19
2018-03-30T10:54:49.669Z,100655.09
2018-03-30T10:57:18.023Z,100659.18
2018-03-30T10:59:46.459Z,100663.81
2018-03-30T11:02:14.858Z,100650.23
2018-03-30T11:04:43.185Z,100652.73
2018-03-30T11:07:12.332Z,100647.86
2018-03-30T11:09:40.666Z,100645.10
2018-03-30T11:12:09.065Z,100643.74
2018-03-30T11:14:37.752Z,100641.14
2018-03-30T11:17:06.265Z,100627.05
2018-03-30T11:19:34.638Z,100630.25
2018-03-30T11:22:03.329Z,100624.39
2018-03-30T11:24:31.653Z,100607.36
2018-03-30T11:27:00.062Z,100607.38
2018-03-30T11:29:28.413Z,100597.52
2018-03-30T11:31:57.499Z,100601.92
2018-03-30T11:34:26.650Z,100586.63
2018-03-30T11:36:55.046Z,100583.27
2018-03-30T11:39:24.164Z,100579.59
2018-03-30T11:41:53.278Z,100573.70
2018-03-30T11:44:22.899Z,100567.95
2018-03-30T11:46:51.238Z,100572.88
2018-03-30T11:49:19.556Z,100564.50
2018-03-30T11:51:47.929Z,100555.79
2018-03-30T11:54:16.306Z,100544.72
2018-03-30T11:56:44.716Z,100536.74
2018-03-30T11:59:13.215Z,100540.62
2018-03-30T12:01:41.550Z,100535.89
2018-03-30T12:04:10.654Z,100528.98
2018-03-30T12:06:39.078Z,100529.16
2018-03-30T12:09:07.437Z,100520.37
2018-03-30T12:11:35.772Z,100519.73
2018-03-30T12:14:04.121Z,100504.05
2018-03-30T12:16:32.472Z,100505.92
2018-03-30T12:19:00.805Z,100504.17
2018-03-30T12:21:29.936Z,100499.07
2018-03-30T12:23:58.253Z,100492.38
2018-03-30T12:26:26.587Z,100481.64
2018-03-30T12:28:55.239Z,100490.06
2018-03-30T12:31:24.361Z,100481.98
2018-03-30T12:33:52.692Z,100471.52
2018-03-30T12:36:21.041Z,100457.80
2018-03-30T12:38:49.384Z,100460.64
2018-03-30T12:41:18.472Z,100470.01
2018-03-30T12:43:47.672Z,100450.73
2018-03-30T12:46:16.784Z,100439.45
2018-03-30T12:48:45.165Z,100433.09
2018-03-30T12:51:13.928Z,100425.02
2018-03-30T12:53:42.623Z,100426.27
2018-03-30T12:56:11.753Z,100423.50
2018-03-30T12:58:40.090Z,100422.11
2018-03-30T13:01:09.316Z,100422.47
2018-03-30T13:03:37.673Z,100415.66
2018-03-30T13:06:06.805Z,100409.98
2018-03-30T13:08:35.165Z,100411.66
2018-03-30T13:11:03.559Z,100407.11
2018-03-30T13:13:31.966Z,100389.60
2018-03-30T13:16:00.429Z,100388.45
2018-03-30T13:18:28.778Z,100383.09
2018-03-30T13:20:58.156Z,100378.59
2018-03-30T13:23:26.534Z,100371.72
2018-03-30T13:25:54.874Z,100375.61
2018-03-30T13:28:23.294Z,100374.07
2018-03-30T13:30:51.686Z,100358.27
2018-03-30T13:33:20.129Z,100354.48
2018-03-30T13:35:48.844Z,100353.60
2018-03-30T13:38:18.713Z,100352.11
2018-03-30T13:40:47.062Z,100347.05
2018-03-30T13:43:16.200Z,100347.59
2018-03-30T13:45:44.708Z,100331.98
2018-03-30T13:48:13.055Z,100338.95
2018-03-30T13:50:54.022Z,100334.73
2018-03-30T13:53:29.638Z,100333.56
2018-03-30T13:56:02.836Z,100324.51
2018-03-30T13:58:33.454Z,100325.90
2018-03-30T14:04:22.439Z,100320.31
2018-03-30T14:07:13.041Z,100313.37
2018-03-30T14:10:00.781Z,100326.23
2018-03-30T14:12:30.531Z,100320.92
2018-03-30T14:14:58.902Z,100315.36
2018-03-30T14:17:37.452Z,100312.89
2018-03-30T14:23:38.331Z,100309.59
2018-03-30T14:26:13.134Z,100301.42
2018-03-30T14:28:46.883Z,100300.82
2018-03-30T14:34:17.792Z,100306.55
2018-03-30T14:37:12.567Z,100309.45
2018-03-30T14:39:44.649Z,100305.56
2018-03-30T14:42:16.215Z,100305.83
2018-03-30T14:44:46.840Z,100302.83
2018-03-30T14:47:16.239Z,100297.69
2018-03-30T14:49:56.016Z,100298.88
2018-03-30T14:52:38.305Z,100302.91
2018-03-30T14:55:13.231Z,100293.72
2018-03-30T15:00:52.386Z,100290.00
2018-03-30T15:03:43.280Z,100282.84
2018-03-30T15:09:17.888Z,100275.23
2018-03-30T15:11:57.369Z,100273.37
2018-03-30T15:14:28.248Z,100278.39
2018-03-30T15:20:11.824Z,100273.30
2018-03-30T15:22:42.757Z,100273.17
2018-03-30T15:25:17.835Z,100266.33
2018-03-30T15:28:02.980Z,100278.75
2018-03-30T15:30:39.345Z,100272.88
2018-03-30T15:33:11.902Z,100282.22
2018-03-30T15:38:40.832Z,100277.04
2018-03-30T15:41:09.966Z,100283.84
2018-03-30T15:43:40.023Z,100285.14
2018-03-30T15:46:22.079Z,100276.56
2018-03-30T15:48:50.454Z,100281.84
2018-03-30T15:51:20.357Z,100277.68
2018-03-30T15:53:47.975Z,100281.92
2018-03-30T15:56:17.281Z,100272.94
2018-03-30T15:58:45.620Z,100267.87
2018-03-30T16:01:14.035Z,100269.68
2018-03-30T16:03:42.410Z,100258.56
2018-03-30T16:06:10.794Z,100267.28
2018-03-30T16:08:39.230Z,100270.02
2018-03-30T16:11:30.555Z,100267.78
2018-03-30T16:13:59.428Z,100267.28
2018-03-30T16:16:27.809Z,100267.73
2018-03-30T16:18:56.919Z,100260.98
2018-03-30T16:21:25.272Z,100249.16
2018-03-30T16:23:52.862Z,100246.98
2018-03-30T16:26:21.122Z,100250.63
2018-03-30T16:28:49.105Z,100253.16
2018-03-30T16:31:16.747Z,100251.38
2018-03-30T16:33:44.315Z,100241.31
2018-03-30T16:36:12.101Z,100245.84
2018-03-30T16:38:39.659Z,100248.11
2018-03-30T16:41:07.200Z,100246.84
2018-03-30T16:43:34.771Z,100245.52
2018-03-30T16:46:02.366Z,100238.16
2018-03-30T16:48:29.906Z,100231.59
2018-03-30T16:50:57.674Z,100240.96
2018-03-30T16:53:25.241Z,100231.24
2018-03-30T16:55:54.701Z,100230.77
2018-03-30T16:58:22.250Z,100231.62
2018-03-30T17:00:49.808Z,100230.91
2018-03-30T17:03:17.381Z,100229.84
2018-03-30T17:05:45.009Z,100227.25
2018-03-30T17:08:12.622Z,100227.50
2018-03-30T17:10:40.204Z,100240.66
2018-03-30T17:13:08.356Z,100236.34
2018-03-30T17:15:35.955Z,100238.97
2018-03-30T17:18:03.567Z,100243.70
2018-03-30T17:20:31.154Z,100251.19
2018-03-30T17:22:58.711Z,100254.94
2018-03-30T17:25:26.288Z,100259.48
2018-03-30T17:27:53.873Z,100258.78
2018-03-30T17:30:21.417Z,100260.07
2018-03-30T17:32:48.978Z,100255.55
2018-03-30T17:35:17.509Z,100252.27
2018-03-30T17:37:45.058Z,100251.37
2018-03-30T17:40:12.717Z,100259.78
2018-03-30T17:42:40.306Z,100258.18
2018-03-30T17:45:07.943Z,100252.54
2018-03-30T17:47:36.237Z,100256.39
2018-03-30T17:50:03.804Z,100252.41
2018-03-30T17:52:31.349Z,100252.69
2018-03-30T17:54:58.904Z,100259.84
2018-03-30T17:57:26.780Z,100250.95
2018-03-30T17:59:54.345Z,100256.17
2018-03-30T18:02:21.922Z,100255.72
2018-03-30T18:04:49.507Z,100250.48
2018-03-30T18:07:17.061Z,100253.64
2018-03-30T18:09:44.814Z,100250.73
2018-03-30T18:12:12.527Z,100252.53
2018-03-30T18:14:40.095Z,100263.98
2018-03-30T18:17:08.423Z,100256.93
2018-03-30T18:19:36.119Z,100261.73
2018-03-30T18:22:03.756Z,100267.84
2018-03-30T18:24:31.352Z,100275.31
2018-03-30T18:26:59.682Z,100263.52
2018-03-30T18:29:27.228Z,100267.37
2018-03-30T18:31:54.766Z,100265.71
2018-03-30T18:34:23.333Z,100269.69
2018-03-30T18:36:51.844Z,100269.77
2018-03-30T18:39:20.152Z,100271.47
2018-03-30T18:41:47.963Z,100273.73
2018-03-30T18:44:15.684Z,100275.16
2018-03-30T18:46:43.305Z,100282.26
2018-03-30T18:49:10.917Z,100274.06
2018-03-30T18:51:38.479Z,100281.16
2018-03-30T18:54:06.170Z,100276.27
2018-03-30T18:56:34.564Z,100277.44
2018-03-30T18:59:02.127Z,100275.75
2018-03-30T19:01:31.069Z,100276.75
2018-03-30T19:03:59.392Z,100274.38
2018-03-30T19:06:27.091Z,100272.64
2018-03-30T19:08:54.956Z,100265.02
2018-03-30T19:11:22.545Z,100265.52
2018-03-30T19:13:50.076Z,100277.74
2018-03-30T19:16:17.610Z,100260.86
2018-03-30T19:18:45.949Z,100268.00
2018-03-30T19:21:13.468Z,100269.36
2018-03-30T19:23:41.085Z,100273.86
2018-03-30T19:26:08.886Z,100270.95
2018-03-30T19:28:36.439Z,100274.00
2018-03-30T19:31:04.012Z,100270.02
2018-03-30T19:33:31.687Z,100277.58
2018-03-30T19:35:59.243Z,100270.30
2018-03-30T19:38:26.795Z,100273.17
2018-03-30T19:40:54.367Z,100270.70
2018-03-30T19:43:21.893Z,100274.38
2018-03-30T19:45:50.263Z,100272.31
2018-03-30T19:48:17.940Z,100268.17
2018-03-30T19:50:46.330Z,100263.99
2018-03-30T19:53:13.994Z,100267.75
2018-03-30T19:55:41.724Z,100268.02
2018-03-30T19:58:10.298Z,100267.89
2018-03-30T20:00:37.853Z,100269.86
2018-03-30T20:03:05.474Z,100262.82
2018-03-30T20:05:33.044Z,100268.13
2018-03-30T20:08:00.601Z,100277.53
2018-03-30T20:10:29.001Z,100267.84
2018-03-30T20:12:56.529Z,100272.20
2018-03-30T20:15:24.062Z,100274.81
2018-03-30T20:17:51.618Z,100263.64
2018-03-30T20:20:19.936Z,100267.69
2018-03-30T20:22:47.961Z,100276.34
2018-03-30T20:25:15.532Z,100262.98
2018-03-30T20:27:43.221Z,100262.16
2018-03-30T20:30:11.064Z,100267.34
2018-03-30T20:32:39.128Z,100261.85
2018-03-30T20:35:06.685Z,100261.47
2018-03-30T20:37:34.494Z,100254.77
2018-03-30T20:40:02.135Z,100258.89
2018-03-30T20:42:29.747Z,100251.06
2018-03-30T20:44:57.297Z,100239.25
2018-03-30T20:47:24.866Z,100237.78
2018-03-30T20:49:52.492Z,100235.55
2018-03-30T20:52:20.034Z,100239.17
2018-03-30T20:54:47.729Z,100234.95
2018-03-30T20:57:15.276Z,100235.61
2018-03-30T20:59:43.133Z,100239.28
2018-03-30T21:02:10.701Z,100230.87
2018-03-30T21:04:38.236Z,100228.02
2018-03-30T21:07:06.580Z,100229.77
2018-03-30T21:09:34.213Z,100234.73
2018-03-30T21:12:01.781Z,100236.34
2018-03-30T21:14:29.332Z,100239.04
2018-03-30T21:16:57.279Z,100239.05
2018-03-30T21:19:24.857Z,100240.87
2018-03-30T21:21:52.394Z,100238.75
2018-03-30T21:24:20.078Z,100236.45
2018-03-30T21:26:47.616Z,100245.86
2018-03-30T21:29:15.961Z,100246.34
2018-03-30T21:31:43.543Z,100239.80
2018-03-30T21:34:11.084Z,100239.30
2018-03-30T21:36:38.608Z,100236.61
2018-03-30T21:39:06.450Z,100230.14
2018-03-30T21:41:33.985Z,100232.33
2018-03-30T21:44:02.301Z,100237.56
2018-03-30T21:46:29.941Z,100240.20
2018-03-30T21:48:57.566Z,100240.31
2018-03-30T21:51:25.175Z,100247.63
2018-03-30T21:53:52.954Z,100238.88
2018-03-30T21:56:20.661Z,100235.73
2018-03-30T21:58:48.204Z,100232.55
2018-03-30T22:01:16.064Z,100225.11
2018-03-30T22:03:43.623Z,100238.09
2018-03-30T22:06:11.391Z,100233.69
2018-03-30T22:08:38.968Z,100226.03
2018-03-30T22:11:06.521Z,100220.30
2018-03-30T22:13:34.070Z,100225.03
2018-03-30T22:16:01.617Z,100213.89
2018-03-30T22:18:29.437Z,100220.52
2018-03-30T22:20:56.977Z,100219.12
2018-03-30T22:23:24.975Z,100200.60
2018-03-30T22:25:52.579Z,100199.81
2018-03-30T22:28:20.786Z,100204.81
2018-03-30T22:30:48.361Z,100200.61
2018-03-30T22:33:16.686Z,100210.37
2018-03-30T22:35:44.241Z,100208.20
2018-03-30T22:38:11.824Z,100207.16
2018-03-30T22:40:39.360Z,100205.39
2018-03-30T22:43:07.090Z,100207.69
2018-03-30T22:45:35.166Z,100200.78
2018-03-30T22:48:03.462Z,100206.84
2018-03-30T22:50:31.042Z,100200.22
2018-03-30T22:52:59.519Z,100196.80
2018-03-30T22:55:27.469Z,100188.80
2018-03-30T22:57:55.013Z,100185.94
2018-03-30T23:00:23.605Z,100194.19
2018-03-30T23:02:51.917Z,100192.08
2018-03-30T23:05:19.960Z,100186.80
2018-03-30T23:07:47.838Z,100178.12
2018-03-30T23:10:15.601Z,100175.63
2018-03-30T23:12:43.380Z,100179.51
2018-03-30T23:15:10.984Z,100176.96
2018-03-30T23:17:38.515Z,100175.68
2018-03-30T23:20:06.057Z,100173.27
2018-03-30T23:22:34.372Z,100162.91
2018-03-30T23:25:01.921Z,100159.66
2018-03-30T23:27:29.463Z,100153.45
2018-03-30T23:29:57.396Z,100151.64
2018-03-30T23:32:25.064Z,100150.73
2018-03-30T23:34:52.626Z,100146.69
2018-03-30T23:37:20.182Z,100153.97
2018-03-30T23:39:47.759Z,100145.56
2018-03-30T23:42:15.291Z,100149.47
2018-03-30T23:44:43.164Z,100148.60
2018-03-30T23:47:10.726Z,100146.48
2018-03-30T23:49:39.049Z,100137.70
2018-03-30T23:52:06.819Z,100132.05
2018-03-30T23:54:37.356Z,100128.13
2018-03-30T23:57:05.880Z,100137.77
2018-03-30T23:59:34.221Z,100138.91
